sensor_id;sensor_type;location;lat;lon;timestamp;temperature;humidity
52024;DHT22;38038;45.922;13.604;2022-08-01T00:01:50;23.30;99.90
52024;DHT22;38038;45.922;13.604;2022-08-01T00:04:16;23.10;99.90
52024;DHT22;38038;45.922;13.604;2022-08-01T00:06:41;23.10;99.90
52024;DHT22;38038;45.922;13.604;2022-08-01T00:09:07;23.00;99.90
52024;DHT22;38038;45.922;13.604;2022-08-01T00:11:33;23.00;99.90
52024;DHT22;38038;45.922;13.604;2022-08-01T00:13:58;22.90;99.90
52024;DHT22;38038;45.922;13.604;2022-08-01T00:16:24;22.80;99.90
52024;DHT22;38038;45.922;13.604;2022-08-01T00:18:50;22.90;99.90
52024;DHT22;38038;45.922;13.604;2022-08-01T00:21:17;22.90;99.90
52024;DHT22;38038;45.922;13.604;2022-08-01T00:23:43;22.90;99.90
52024;DHT22;38038;45.922;13.604;2022-08-01T00:26:11;22.80;99.90
52024;DHT22;38038;45.922;13.604;2022-08-01T00:28:37;22.80;99.90
52024;DHT22;38038;45.922;13.604;2022-08-01T00:31:03;22.80;99.90
52024;DHT22;38038;45.922;13.604;2022-08-01T00:33:29;22.80;99.90
52024;DHT22;38038;45.922;13.604;2022-08-01T00:35:54;22.80;99.90
52024;DHT22;38038;45.922;13.604;2022-08-01T00:38:21;22.90;99.90
52024;DHT22;38038;45.922;13.604;2022-08-01T00:40:47;23.00;99.90
52024;DHT22;38038;45.922;13.604;2022-08-01T00:43:14;23.00;99.90
52024;DHT22;38038;45.922;13.604;2022-08-01T00:45:40;23.00;99.90
52024;DHT22;38038;45.922;13.604;2022-08-01T00:48:06;22.90;99.90
52024;DHT22;38038;45.922;13.604;2022-08-01T00:50:32;23.00;99.90
52024;DHT22;38038;45.922;13.604;2022-08-01T00:52:59;22.90;99.90
52024;DHT22;38038;45.922;13.604;2022-08-01T00:55:29;22.90;99.90
52024;DHT22;38038;45.922;13.604;2022-08-01T00:57:56;23.00;99.90
52024;DHT22;38038;45.922;13.604;2022-08-01T01:00:22;22.90;99.90
52024;DHT22;38038;45.922;13.604;2022-08-01T01:02:48;22.90;99.90
52024;DHT22;38038;45.922;13.604;2022-08-01T01:05:14;23.00;99.90
52024;DHT22;38038;45.922;13.604;2022-08-01T01:11:04;23.00;99.90
52024;DHT22;38038;45.922;13.604;2022-08-01T01:16:10;23.00;99.90
52024;DHT22;38038;45.922;13.604;2022-08-01T01:18:40;23.00;99.90
52024;DHT22;38038;45.922;13.604;2022-08-01T01:21:29;23.10;99.90
52024;DHT22;38038;45.922;13.604;2022-08-01T01:29:57;23.00;99.90
52024;DHT22;38038;45.922;13.604;2022-08-01T01:34:55;22.90;99.90
52024;DHT22;38038;45.922;13.604;2022-08-01T01:37:23;22.80;99.90
52024;DHT22;38038;45.922;13.604;2022-08-01T01:39:51;22.60;99.90
52024;DHT22;38038;45.922;13.604;2022-08-01T01:42:19;22.60;99.90
52024;DHT22;38038;45.922;13.604;2022-08-01T01:44:45;22.60;99.90
52024;DHT22;38038;45.922;13.604;2022-08-01T01:47:13;22.60;99.90
52024;DHT22;38038;45.922;13.604;2022-08-01T01:49:40;22.60;99.90
52024;DHT22;38038;45.922;13.604;2022-08-01T01:52:07;22.50;99.90
52024;DHT22;38038;45.922;13.604;2022-08-01T01:54:37;22.50;99.90
52024;DHT22;38038;45.922;13.604;2022-08-01T01:57:05;22.50;99.90
52024;DHT22;38038;45.922;13.604;2022-08-01T01:59:34;22.50;99.90
52024;DHT22;38038;45.922;13.604;2022-08-01T02:02:03;22.40;99.90
52024;DHT22;38038;45.922;13.604;2022-08-01T02:04:30;22.40;99.90
52024;DHT22;38038;45.922;13.604;2022-08-01T02:06:58;22.40;99.90
52024;DHT22;38038;45.922;13.604;2022-08-01T02:09:26;22.40;99.90
52024;DHT22;38038;45.922;13.604;2022-08-01T02:11:54;22.20;99.90
52024;DHT22;38038;45.922;13.604;2022-08-01T02:14:20;22.20;99.90
52024;DHT22;38038;45.922;13.604;2022-08-01T02:16:49;22.20;99.90
52024;DHT22;38038;45.922;13.604;2022-08-01T02:19:19;22.10;99.90
52024;DHT22;38038;45.922;13.604;2022-08-01T02:21:51;22.20;99.90
52024;DHT22;38038;45.922;13.604;2022-08-01T02:27:01;22.30;99.90
52024;DHT22;38038;45.922;13.604;2022-08-01T02:29:36;22.30;99.90
52024;DHT22;38038;45.922;13.604;2022-08-01T02:32:04;22.30;99.90
52024;DHT22;38038;45.922;13.604;2022-08-01T02:34:33;22.30;99.90
52024;DHT22;38038;45.922;13.604;2022-08-01T02:37:01;22.20;99.90
52024;DHT22;38038;45.922;13.604;2022-08-01T02:39:29;22.10;99.90
52024;DHT22;38038;45.922;13.604;2022-08-01T02:42:04;22.00;99.90
52024;DHT22;38038;45.922;13.604;2022-08-01T02:44:34;21.80;99.90
52024;DHT22;38038;45.922;13.604;2022-08-01T02:47:02;21.80;99.90
52024;DHT22;38038;45.922;13.604;2022-08-01T02:49:33;21.70;99.90
52024;DHT22;38038;45.922;13.604;2022-08-01T02:52:00;21.60;99.90
52024;DHT22;38038;45.922;13.604;2022-08-01T02:54:28;21.60;99.90
52024;DHT22;38038;45.922;13.604;2022-08-01T02:56:56;21.70;99.90
52024;DHT22;38038;45.922;13.604;2022-08-01T02:59:23;21.70;99.90
52024;DHT22;38038;45.922;13.604;2022-08-01T03:01:53;21.70;99.90
52024;DHT22;38038;45.922;13.604;2022-08-01T03:04:21;21.70;99.90
52024;DHT22;38038;45.922;13.604;2022-08-01T03:06:48;21.60;99.90
52024;DHT22;38038;45.922;13.604;2022-08-01T03:09:14;21.50;99.90
52024;DHT22;38038;45.922;13.604;2022-08-01T03:11:42;21.30;99.90
52024;DHT22;38038;45.922;13.604;2022-08-01T03:14:10;21.30;99.90
52024;DHT22;38038;45.922;13.604;2022-08-01T03:16:38;21.30;99.90
52024;DHT22;38038;45.922;13.604;2022-08-01T03:19:07;21.20;99.90
52024;DHT22;38038;45.922;13.604;2022-08-01T03:21:34;21.30;99.90
52024;DHT22;38038;45.922;13.604;2022-08-01T03:24:01;21.30;99.90
52024;DHT22;38038;45.922;13.604;2022-08-01T03:26:31;21.40;99.90
52024;DHT22;38038;45.922;13.604;2022-08-01T03:29:03;21.40;99.90
52024;DHT22;38038;45.922;13.604;2022-08-01T03:31:32;21.50;99.90
52024;DHT22;38038;45.922;13.604;2022-08-01T03:34:00;21.40;99.90
52024;DHT22;38038;45.922;13.604;2022-08-01T03:36:26;21.30;99.90
52024;DHT22;38038;45.922;13.604;2022-08-01T03:38:54;21.30;99.90
52024;DHT22;38038;45.922;13.604;2022-08-01T03:41:24;21.30;99.90
52024;DHT22;38038;45.922;13.604;2022-08-01T03:44:03;21.40;99.90
52024;DHT22;38038;45.922;13.604;2022-08-01T03:46:36;21.50;99.90
52024;DHT22;38038;45.922;13.604;2022-08-01T03:49:07;21.50;99.90
52024;DHT22;38038;45.922;13.604;2022-08-01T03:51:35;21.50;99.90
52024;DHT22;38038;45.922;13.604;2022-08-01T03:54:04;21.50;99.90
52024;DHT22;38038;45.922;13.604;2022-08-01T03:56:31;21.40;99.90
52024;DHT22;38038;45.922;13.604;2022-08-01T03:58:59;21.50;99.90
52024;DHT22;38038;45.922;13.604;2022-08-01T04:01:27;21.40;99.90
52024;DHT22;38038;45.922;13.604;2022-08-01T04:03:53;21.20;99.90
52024;DHT22;38038;45.922;13.604;2022-08-01T04:06:19;21.20;99.90
52024;DHT22;38038;45.922;13.604;2022-08-01T04:08:45;21.10;99.90
52024;DHT22;38038;45.922;13.604;2022-08-01T04:11:21;21.10;99.90
52024;DHT22;38038;45.922;13.604;2022-08-01T04:13:48;21.20;99.90
52024;DHT22;38038;45.922;13.604;2022-08-01T04:16:13;21.20;99.90
52024;DHT22;38038;45.922;13.604;2022-08-01T04:18:39;21.30;99.90
52024;DHT22;38038;45.922;13.604;2022-08-01T04:21:05;21.40;99.90
52024;DHT22;38038;45.922;13.604;2022-08-01T04:23:31;21.40;99.90
52024;DHT22;38038;45.922;13.604;2022-08-01T04:25:59;21.50;99.90
52024;DHT22;38038;45.922;13.604;2022-08-01T04:28:26;21.80;99.90
52024;DHT22;38038;45.922;13.604;2022-08-01T04:30:54;22.20;99.90
52024;DHT22;38038;45.922;13.604;2022-08-01T04:33:21;22.90;99.90
52024;DHT22;38038;45.922;13.604;2022-08-01T04:35:48;23.30;99.90
52024;DHT22;38038;45.922;13.604;2022-08-01T04:38:19;23.90;99.90
52024;DHT22;38038;45.922;13.604;2022-08-01T04:40:47;24.70;99.90
52024;DHT22;38038;45.922;13.604;2022-08-01T04:43:14;25.70;99.90
52024;DHT22;38038;45.922;13.604;2022-08-01T04:45:40;26.50;99.90
52024;DHT22;38038;45.922;13.604;2022-08-01T04:48:09;27.20;99.70
52024;DHT22;38038;45.922;13.604;2022-08-01T04:50:36;27.80;98.50
52024;DHT22;38038;45.922;13.604;2022-08-01T04:53:03;28.00;97.50
52024;DHT22;38038;45.922;13.604;2022-08-01T04:55:29;28.60;95.80
52024;DHT22;38038;45.922;13.604;2022-08-01T04:57:54;29.20;94.10
52024;DHT22;38038;45.922;13.604;2022-08-01T05:00:20;29.80;93.20
52024;DHT22;38038;45.922;13.604;2022-08-01T05:02:46;30.10;93.00
52024;DHT22;38038;45.922;13.604;2022-08-01T05:05:12;31.00;91.40
52024;DHT22;38038;45.922;13.604;2022-08-01T05:07:38;31.40;90.20
52024;DHT22;38038;45.922;13.604;2022-08-01T05:10:04;31.30;89.70
52024;DHT22;38038;45.922;13.604;2022-08-01T05:12:30;31.50;89.70
52024;DHT22;38038;45.922;13.604;2022-08-01T05:15:00;32.40;87.30
52024;DHT22;38038;45.922;13.604;2022-08-01T05:17:27;32.30;86.60
52024;DHT22;38038;45.922;13.604;2022-08-01T05:19:52;32.50;86.70
52024;DHT22;38038;45.922;13.604;2022-08-01T05:22:18;32.40;85.60
52024;DHT22;38038;45.922;13.604;2022-08-01T05:24:44;32.10;85.80
52024;DHT22;38038;45.922;13.604;2022-08-01T05:27:10;32.40;84.60
52024;DHT22;38038;45.922;13.604;2022-08-01T05:29:35;32.10;84.40
52024;DHT22;38038;45.922;13.604;2022-08-01T05:32:01;32.00;84.70
52024;DHT22;38038;45.922;13.604;2022-08-01T05:34:27;32.70;83.30
52024;DHT22;38038;45.922;13.604;2022-08-01T05:36:53;33.00;82.60
52024;DHT22;38038;45.922;13.604;2022-08-01T05:39:18;32.40;83.50
52024;DHT22;38038;45.922;13.604;2022-08-01T05:41:44;32.40;84.00
52024;DHT22;38038;45.922;13.604;2022-08-01T05:44:10;32.60;83.00
52024;DHT22;38038;45.922;13.604;2022-08-01T05:46:36;33.00;82.50
52024;DHT22;38038;45.922;13.604;2022-08-01T05:49:04;32.50;82.80
52024;DHT22;38038;45.922;13.604;2022-08-01T05:51:30;32.30;82.50
52024;DHT22;38038;45.922;13.604;2022-08-01T05:53:56;32.30;81.40
52024;DHT22;38038;45.922;13.604;2022-08-01T05:56:22;32.20;82.00
52024;DHT22;38038;45.922;13.604;2022-08-01T05:58:49;32.50;81.40
52024;DHT22;38038;45.922;13.604;2022-08-01T06:01:15;32.40;82.60
52024;DHT22;38038;45.922;13.604;2022-08-01T06:03:41;33.00;81.40
52024;DHT22;38038;45.922;13.604;2022-08-01T06:06:07;32.50;81.70
52024;DHT22;38038;45.922;13.604;2022-08-01T06:08:33;33.00;81.60
52024;DHT22;38038;45.922;13.604;2022-08-01T06:10:58;33.30;80.00
52024;DHT22;38038;45.922;13.604;2022-08-01T06:13:24;32.60;81.80
52024;DHT22;38038;45.922;13.604;2022-08-01T06:15:50;31.90;81.50
52024;DHT22;38038;45.922;13.604;2022-08-01T06:18:16;30.80;82.20
52024;DHT22;38038;45.922;13.604;2022-08-01T06:20:42;30.10;83.30
52024;DHT22;38038;45.922;13.604;2022-08-01T06:23:08;30.10;83.80
52024;DHT22;38038;45.922;13.604;2022-08-01T06:25:34;29.10;87.50
52024;DHT22;38038;45.922;13.604;2022-08-01T06:28:00;29.50;86.70
52024;DHT22;38038;45.922;13.604;2022-08-01T06:30:26;30.20;86.20
52024;DHT22;38038;45.922;13.604;2022-08-01T06:32:52;31.30;85.00
52024;DHT22;38038;45.922;13.604;2022-08-01T06:35:18;31.40;84.20
52024;DHT22;38038;45.922;13.604;2022-08-01T06:37:44;31.40;83.30
52024;DHT22;38038;45.922;13.604;2022-08-01T06:40:13;32.10;80.40
52024;DHT22;38038;45.922;13.604;2022-08-01T06:42:39;31.80;80.50
52024;DHT22;38038;45.922;13.604;2022-08-01T10:02:03;31.90;63.40
52024;DHT22;38038;45.922;13.604;2022-08-01T10:04:29;32.00;63.60
52024;DHT22;38038;45.922;13.604;2022-08-01T10:07:15;32.00;64.10
52024;DHT22;38038;45.922;13.604;2022-08-01T10:09:41;32.20;65.40
52024;DHT22;38038;45.922;13.604;2022-08-01T10:12:13;32.30;63.90
52024;DHT22;38038;45.922;13.604;2022-08-01T10:14:40;32.30;63.80
52024;DHT22;38038;45.922;13.604;2022-08-01T10:17:08;32.20;64.10
52024;DHT22;38038;45.922;13.604;2022-08-01T10:19:36;32.10;64.20
52024;DHT22;38038;45.922;13.604;2022-08-01T10:22:06;32.00;64.60
52024;DHT22;38038;45.922;13.604;2022-08-01T10:24:37;32.00;64.90
52024;DHT22;38038;45.922;13.604;2022-08-01T10:27:08;32.00;65.30
52024;DHT22;38038;45.922;13.604;2022-08-01T10:32:05;32.10;66.20
52024;DHT22;38038;45.922;13.604;2022-08-01T10:34:31;32.30;65.90
52024;DHT22;38038;45.922;13.604;2022-08-01T10:36:59;32.30;64.90
52024;DHT22;38038;45.922;13.604;2022-08-01T10:39:25;32.20;65.50
52024;DHT22;38038;45.922;13.604;2022-08-01T10:41:55;32.20;65.40
52024;DHT22;38038;45.922;13.604;2022-08-01T10:44:22;32.20;65.50
52024;DHT22;38038;45.922;13.604;2022-08-01T10:46:52;32.20;66.20
52024;DHT22;38038;45.922;13.604;2022-08-01T10:49:20;32.30;66.40
52024;DHT22;38038;45.922;13.604;2022-08-01T10:51:47;32.40;65.40
52024;DHT22;38038;45.922;13.604;2022-08-01T10:54:13;32.30;66.30
52024;DHT22;38038;45.922;13.604;2022-08-01T10:56:45;32.40;65.90
52024;DHT22;38038;45.922;13.604;2022-08-01T11:01:56;32.50;65.90
52024;DHT22;38038;45.922;13.604;2022-08-01T11:04:33;32.60;63.70
52024;DHT22;38038;45.922;13.604;2022-08-01T11:07:07;32.50;63.50
52024;DHT22;38038;45.922;13.604;2022-08-01T11:09:44;32.40;63.80
52024;DHT22;38038;45.922;13.604;2022-08-01T11:12:12;32.40;64.10
52024;DHT22;38038;45.922;13.604;2022-08-01T11:17:46;32.60;65.60
52024;DHT22;38038;45.922;13.604;2022-08-01T11:20:16;32.60;64.50
52024;DHT22;38038;45.922;13.604;2022-08-01T11:31:39;32.60;63.90
52024;DHT22;38038;45.922;13.604;2022-08-01T11:38:37;32.60;62.60
52024;DHT22;38038;45.922;13.604;2022-08-01T11:44:27;32.70;61.20
52024;DHT22;38038;45.922;13.604;2022-08-01T11:47:00;32.80;61.00
52024;DHT22;38038;45.922;13.604;2022-08-01T11:52:05;33.00;61.30
52024;DHT22;38038;45.922;13.604;2022-08-01T11:54:41;33.00;60.30
52024;DHT22;38038;45.922;13.604;2022-08-01T11:57:09;32.90;60.90
52024;DHT22;38038;45.922;13.604;2022-08-01T11:59:40;32.80;61.30
52024;DHT22;38038;45.922;13.604;2022-08-01T12:04:56;33.20;61.60
52024;DHT22;38038;45.922;13.604;2022-08-01T12:07:23;33.10;61.10
52024;DHT22;38038;45.922;13.604;2022-08-01T12:10:01;33.20;61.60
52024;DHT22;38038;45.922;13.604;2022-08-01T12:12:28;33.20;61.30
52024;DHT22;38038;45.922;13.604;2022-08-01T12:15:03;33.10;60.80
52024;DHT22;38038;45.922;13.604;2022-08-01T12:17:32;33.20;60.90
52024;DHT22;38038;45.922;13.604;2022-08-01T12:19:59;33.30;60.70
52024;DHT22;38038;45.922;13.604;2022-08-01T12:22:25;33.30;60.00
52024;DHT22;38038;45.922;13.604;2022-08-01T12:24:51;33.40;60.40
52024;DHT22;38038;45.922;13.604;2022-08-01T12:27:28;33.50;58.70
52024;DHT22;38038;45.922;13.604;2022-08-01T12:29:55;33.40;58.90
52024;DHT22;38038;45.922;13.604;2022-08-01T12:34:54;33.30;58.40
52024;DHT22;38038;45.922;13.604;2022-08-01T12:37:20;33.20;58.50
52024;DHT22;38038;45.922;13.604;2022-08-01T12:39:46;33.20;57.80
52024;DHT22;38038;45.922;13.604;2022-08-01T12:42:12;33.10;57.90
52024;DHT22;38038;45.922;13.604;2022-08-01T12:44:39;33.10;57.80
52024;DHT22;38038;45.922;13.604;2022-08-01T12:47:06;33.10;58.40
52024;DHT22;38038;45.922;13.604;2022-08-01T12:49:33;33.10;58.30
52024;DHT22;38038;45.922;13.604;2022-08-01T12:52:00;33.10;58.30
52024;DHT22;38038;45.922;13.604;2022-08-01T12:54:27;33.00;58.60
52024;DHT22;38038;45.922;13.604;2022-08-01T12:56:52;33.10;58.20
52024;DHT22;38038;45.922;13.604;2022-08-01T12:59:23;33.10;57.80
52024;DHT22;38038;45.922;13.604;2022-08-01T13:01:51;33.20;57.50
52024;DHT22;38038;45.922;13.604;2022-08-01T13:04:18;33.20;56.80
52024;DHT22;38038;45.922;13.604;2022-08-01T13:06:44;33.10;57.00
52024;DHT22;38038;45.922;13.604;2022-08-01T13:09:10;33.10;56.90
52024;DHT22;38038;45.922;13.604;2022-08-01T13:11:41;33.10;56.80
52024;DHT22;38038;45.922;13.604;2022-08-01T13:14:08;32.90;56.80
52024;DHT22;38038;45.922;13.604;2022-08-01T13:16:46;32.90;57.10
52024;DHT22;38038;45.922;13.604;2022-08-01T13:19:12;32.90;57.30
52024;DHT22;38038;45.922;13.604;2022-08-01T13:21:38;32.90;56.80
52024;DHT22;38038;45.922;13.604;2022-08-01T13:24:12;32.90;56.80
52024;DHT22;38038;45.922;13.604;2022-08-01T13:26:48;32.90;57.30
52024;DHT22;38038;45.922;13.604;2022-08-01T13:29:33;32.90;57.00
52024;DHT22;38038;45.922;13.604;2022-08-01T13:32:19;33.00;57.00
52024;DHT22;38038;45.922;13.604;2022-08-01T13:34:46;33.00;55.80
52024;DHT22;38038;45.922;13.604;2022-08-01T13:37:11;32.90;55.40
52024;DHT22;38038;45.922;13.604;2022-08-01T13:39:37;33.00;55.80
52024;DHT22;38038;45.922;13.604;2022-08-01T13:42:07;33.10;55.70
52024;DHT22;38038;45.922;13.604;2022-08-01T13:44:33;33.20;54.80
52024;DHT22;38038;45.922;13.604;2022-08-01T13:46:59;33.20;54.60
52024;DHT22;38038;45.922;13.604;2022-08-01T13:49:25;33.10;54.90
52024;DHT22;38038;45.922;13.604;2022-08-01T13:51:51;33.00;55.00
52024;DHT22;38038;45.922;13.604;2022-08-01T13:54:17;33.00;55.00
52024;DHT22;38038;45.922;13.604;2022-08-01T13:56:43;33.00;55.00
52024;DHT22;38038;45.922;13.604;2022-08-01T13:59:08;33.00;55.30
52024;DHT22;38038;45.922;13.604;2022-08-01T14:01:35;33.10;55.40
52024;DHT22;38038;45.922;13.604;2022-08-01T14:04:01;33.10;56.00
52024;DHT22;38038;45.922;13.604;2022-08-01T14:06:27;33.10;55.60
52024;DHT22;38038;45.922;13.604;2022-08-01T14:08:53;33.10;55.60
52024;DHT22;38038;45.922;13.604;2022-08-01T14:11:19;33.20;55.70
52024;DHT22;38038;45.922;13.604;2022-08-01T14:13:44;33.10;55.40
52024;DHT22;38038;45.922;13.604;2022-08-01T14:16:10;33.10;55.60
52024;DHT22;38038;45.922;13.604;2022-08-01T14:18:36;33.20;55.90
52024;DHT22;38038;45.922;13.604;2022-08-01T14:21:02;33.30;56.20
52024;DHT22;38038;45.922;13.604;2022-08-01T14:23:28;33.30;55.90
52024;DHT22;38038;45.922;13.604;2022-08-01T14:25:53;33.10;55.50
52024;DHT22;38038;45.922;13.604;2022-08-01T14:28:19;33.20;55.90
52024;DHT22;38038;45.922;13.604;2022-08-01T14:30:46;33.10;56.40
52024;DHT22;38038;45.922;13.604;2022-08-01T14:33:12;33.10;56.00
52024;DHT22;38038;45.922;13.604;2022-08-01T14:35:38;33.20;56.20
52024;DHT22;38038;45.922;13.604;2022-08-01T14:38:04;33.30;56.50
52024;DHT22;38038;45.922;13.604;2022-08-01T14:40:29;33.30;55.70
52024;DHT22;38038;45.922;13.604;2022-08-01T14:42:55;33.30;57.10
52024;DHT22;38038;45.922;13.604;2022-08-01T14:45:21;33.40;56.50
52024;DHT22;38038;45.922;13.604;2022-08-01T14:47:46;33.50;56.70
52024;DHT22;38038;45.922;13.604;2022-08-01T14:50:14;33.50;56.60
52024;DHT22;38038;45.922;13.604;2022-08-01T14:52:40;33.60;56.40
52024;DHT22;38038;45.922;13.604;2022-08-01T14:55:08;33.70;56.60
52024;DHT22;38038;45.922;13.604;2022-08-01T14:57:34;33.80;57.10
52024;DHT22;38038;45.922;13.604;2022-08-01T15:00:00;33.60;57.10
52024;DHT22;38038;45.922;13.604;2022-08-01T15:02:26;33.60;57.00
52024;DHT22;38038;45.922;13.604;2022-08-01T15:04:52;33.60;57.40
52024;DHT22;38038;45.922;13.604;2022-08-01T15:07:18;33.70;57.30
52024;DHT22;38038;45.922;13.604;2022-08-01T15:09:44;33.80;56.60
52024;DHT22;38038;45.922;13.604;2022-08-01T15:12:11;33.80;56.80
52024;DHT22;38038;45.922;13.604;2022-08-01T15:14:37;33.70;57.60
52024;DHT22;38038;45.922;13.604;2022-08-01T15:17:27;33.80;57.20
52024;DHT22;38038;45.922;13.604;2022-08-01T15:19:59;33.80;57.00
52024;DHT22;38038;45.922;13.604;2022-08-01T15:22:25;33.80;57.20
52024;DHT22;38038;45.922;13.604;2022-08-01T15:24:53;33.70;56.70
52024;DHT22;38038;45.922;13.604;2022-08-01T15:27:19;33.70;57.10
52024;DHT22;38038;45.922;13.604;2022-08-01T15:29:47;33.80;57.00
52024;DHT22;38038;45.922;13.604;2022-08-01T15:32:13;33.90;56.70
52024;DHT22;38038;45.922;13.604;2022-08-01T15:34:40;34.10;55.80
52024;DHT22;38038;45.922;13.604;2022-08-01T15:37:07;34.10;55.90
52024;DHT22;38038;45.922;13.604;2022-08-01T15:39:34;34.10;55.10
52024;DHT22;38038;45.922;13.604;2022-08-01T15:42:09;34.20;55.80
52024;DHT22;38038;45.922;13.604;2022-08-01T15:44:35;34.20;55.80
52024;DHT22;38038;45.922;13.604;2022-08-01T15:47:02;34.10;55.40
52024;DHT22;38038;45.922;13.604;2022-08-01T15:49:29;33.70;55.80
52024;DHT22;38038;45.922;13.604;2022-08-01T15:51:55;33.80;55.90
52024;DHT22;38038;45.922;13.604;2022-08-01T15:54:21;33.90;55.60
52024;DHT22;38038;45.922;13.604;2022-08-01T15:56:46;34.00;55.30
52024;DHT22;38038;45.922;13.604;2022-08-01T15:59:13;34.00;56.00
52024;DHT22;38038;45.922;13.604;2022-08-01T16:01:39;34.10;56.30
52024;DHT22;38038;45.922;13.604;2022-08-01T16:04:05;34.10;55.40
52024;DHT22;38038;45.922;13.604;2022-08-01T16:06:32;34.00;55.00
52024;DHT22;38038;45.922;13.604;2022-08-01T16:08:58;34.10;53.80
52024;DHT22;38038;45.922;13.604;2022-08-01T16:11:24;33.80;54.60
52024;DHT22;38038;45.922;13.604;2022-08-01T16:13:52;33.60;55.10
52024;DHT22;38038;45.922;13.604;2022-08-01T16:16:19;33.40;54.90
52024;DHT22;38038;45.922;13.604;2022-08-01T16:18:45;33.20;55.20
52024;DHT22;38038;45.922;13.604;2022-08-01T16:21:11;33.20;54.70
52024;DHT22;38038;45.922;13.604;2022-08-01T16:23:41;33.30;55.00
52024;DHT22;38038;45.922;13.604;2022-08-01T16:26:07;33.30;55.10
52024;DHT22;38038;45.922;13.604;2022-08-01T16:28:32;33.20;55.50
52024;DHT22;38038;45.922;13.604;2022-08-01T16:30:58;33.10;54.40
52024;DHT22;38038;45.922;13.604;2022-08-01T16:33:24;32.90;54.50
52024;DHT22;38038;45.922;13.604;2022-08-01T16:35:51;32.80;54.50
52024;DHT22;38038;45.922;13.604;2022-08-01T16:38:18;32.80;54.50
52024;DHT22;38038;45.922;13.604;2022-08-01T16:40:46;32.90;55.00
52024;DHT22;38038;45.922;13.604;2022-08-01T16:43:16;32.80;54.90
52024;DHT22;38038;45.922;13.604;2022-08-01T16:45:42;32.90;55.90
52024;DHT22;38038;45.922;13.604;2022-08-01T16:48:09;32.90;56.00
52024;DHT22;38038;45.922;13.604;2022-08-01T16:50:35;33.10;56.10
52024;DHT22;38038;45.922;13.604;2022-08-01T16:53:01;33.20;56.80
52024;DHT22;38038;45.922;13.604;2022-08-01T16:55:26;33.20;57.70
52024;DHT22;38038;45.922;13.604;2022-08-01T16:57:52;33.10;58.10
52024;DHT22;38038;45.922;13.604;2022-08-01T17:00:18;33.20;58.30
52024;DHT22;38038;45.922;13.604;2022-08-01T17:02:45;33.10;58.00
52024;DHT22;38038;45.922;13.604;2022-08-01T17:05:11;33.00;58.60
52024;DHT22;38038;45.922;13.604;2022-08-01T17:07:37;33.00;59.30
52024;DHT22;38038;45.922;13.604;2022-08-01T17:10:05;33.00;58.50
52024;DHT22;38038;45.922;13.604;2022-08-01T17:12:31;33.00;58.80
52024;DHT22;38038;45.922;13.604;2022-08-01T17:14:57;33.00;59.60
52024;DHT22;38038;45.922;13.604;2022-08-01T17:17:23;32.70;59.70
52024;DHT22;38038;45.922;13.604;2022-08-01T17:19:50;32.70;59.40
52024;DHT22;38038;45.922;13.604;2022-08-01T17:22:16;32.80;59.60
52024;DHT22;38038;45.922;13.604;2022-08-01T17:24:42;32.80;59.60
52024;DHT22;38038;45.922;13.604;2022-08-01T17:27:08;32.70;60.50
52024;DHT22;38038;45.922;13.604;2022-08-01T17:29:33;32.60;59.80
52024;DHT22;38038;45.922;13.604;2022-08-01T17:31:59;32.40;60.20
52024;DHT22;38038;45.922;13.604;2022-08-01T17:34:25;32.50;61.80
52024;DHT22;38038;45.922;13.604;2022-08-01T17:36:51;32.30;62.40
52024;DHT22;38038;45.922;13.604;2022-08-01T17:39:16;32.20;63.60
52024;DHT22;38038;45.922;13.604;2022-08-01T17:41:42;32.20;63.70
52024;DHT22;38038;45.922;13.604;2022-08-01T17:44:08;32.20;64.40
52024;DHT22;38038;45.922;13.604;2022-08-01T17:46:34;32.10;64.50
52024;DHT22;38038;45.922;13.604;2022-08-01T17:49:00;31.90;65.30
52024;DHT22;38038;45.922;13.604;2022-08-01T17:51:27;31.80;65.10
52024;DHT22;38038;45.922;13.604;2022-08-01T17:53:53;31.60;65.90
52024;DHT22;38038;45.922;13.604;2022-08-01T17:56:19;31.50;66.10
52024;DHT22;38038;45.922;13.604;2022-08-01T17:58:44;31.50;66.00
52024;DHT22;38038;45.922;13.604;2022-08-01T18:01:11;31.40;67.20
52024;DHT22;38038;45.922;13.604;2022-08-01T18:03:36;31.10;67.20
52024;DHT22;38038;45.922;13.604;2022-08-01T18:06:02;31.10;66.70
52024;DHT22;38038;45.922;13.604;2022-08-01T18:08:28;31.00;66.60
52024;DHT22;38038;45.922;13.604;2022-08-01T18:10:55;30.90;66.00
52024;DHT22;38038;45.922;13.604;2022-08-01T18:13:21;30.90;65.40
52024;DHT22;38038;45.922;13.604;2022-08-01T18:15:46;30.80;64.00
52024;DHT22;38038;45.922;13.604;2022-08-01T18:18:12;30.70;64.10
52024;DHT22;38038;45.922;13.604;2022-08-01T18:20:41;30.60;63.60
52024;DHT22;38038;45.922;13.604;2022-08-01T18:23:07;30.50;64.00
52024;DHT22;38038;45.922;13.604;2022-08-01T18:25:36;30.50;63.20
52024;DHT22;38038;45.922;13.604;2022-08-01T18:28:01;30.40;61.70
52024;DHT22;38038;45.922;13.604;2022-08-01T18:30:27;30.30;61.60
52024;DHT22;38038;45.922;13.604;2022-08-01T18:32:53;30.20;60.80
52024;DHT22;38038;45.922;13.604;2022-08-01T18:35:21;30.10;61.60
52024;DHT22;38038;45.922;13.604;2022-08-01T18:37:48;30.00;60.90
52024;DHT22;38038;45.922;13.604;2022-08-01T18:40:14;29.90;61.80
52024;DHT22;38038;45.922;13.604;2022-08-01T18:42:40;29.80;63.90
52024;DHT22;38038;45.922;13.604;2022-08-01T18:45:06;29.60;65.30
52024;DHT22;38038;45.922;13.604;2022-08-01T18:47:32;29.40;66.40
52024;DHT22;38038;45.922;13.604;2022-08-01T18:49:58;29.30;67.00
52024;DHT22;38038;45.922;13.604;2022-08-01T18:52:23;29.10;67.60
52024;DHT22;38038;45.922;13.604;2022-08-01T18:54:51;28.90;68.70
52024;DHT22;38038;45.922;13.604;2022-08-01T18:57:17;28.90;69.10
52024;DHT22;38038;45.922;13.604;2022-08-01T18:59:43;28.80;69.20
52024;DHT22;38038;45.922;13.604;2022-08-01T22:19:22;25.70;76.40
52024;DHT22;38038;45.922;13.604;2022-08-01T22:21:48;25.70;75.80
52024;DHT22;38038;45.922;13.604;2022-08-01T22:24:15;25.80;75.50
52024;DHT22;38038;45.922;13.604;2022-08-01T22:26:42;25.80;75.90
52024;DHT22;38038;45.922;13.604;2022-08-01T22:29:09;25.80;74.80
52024;DHT22;38038;45.922;13.604;2022-08-01T22:31:34;25.80;75.10
52024;DHT22;38038;45.922;13.604;2022-08-01T22:34:00;25.80;75.30
52024;DHT22;38038;45.922;13.604;2022-08-01T22:36:26;25.60;76.10
52024;DHT22;38038;45.922;13.604;2022-08-01T22:38:51;25.50;76.50
52024;DHT22;38038;45.922;13.604;2022-08-01T22:41:24;25.30;77.20